Time;durP1;ratioP1;P1;durP2;ratioP2;P2;SDS_P1;SDS_P2;PMS_P1;PMS_P2;Temp;Humidity;BMP_temperature;BMP_pressure;BME280_temperature;BME280_humidity;BME280_pressure;Samples;Min_cycle;Max_cycle;Signal;HPM_P1;HPM_P2
2022/09/18 00:00:53;;;;;;;1.50;1.00;;;12.60;98.20;;;;;;4896610;29;20555;-77
2022/09/18 00:03:20;;;;;;;1.50;1.00;;;12.70;98.20;;;;;;4901069;29;20456;-78
2022/09/18 00:05:47;;;;;;;1.50;1.00;;;12.70;98.20;;;;;;4906780;29;20502;-78
2022/09/18 00:08:14;;;;;;;1.50;1.07;;;12.70;98.20;;;;;;4896546;29;21035;-76
2022/09/18 00:10:45;;;;;;;1.50;1.00;;;12.70;98.20;;;;;;4906868;29;20866;-78
2022/09/18 00:13:12;;;;;;;1.50;1.10;;;12.70;98.20;;;;;;4892081;29;20491;-78
2022/09/18 00:15:39;;;;;;;1.50;1.00;;;12.70;98.20;;;;;;4912070;29;20476;-79
2022/09/18 00:18:07;;;;;;;1.50;1.07;;;12.60;98.20;;;;;;4890587;29;20884;-78
2022/09/18 00:20:35;;;;;;;1.50;1.07;;;12.60;98.20;;;;;;4913086;29;20909;-78
2022/09/18 00:23:02;;;;;;;1.50;0.97;;;12.60;98.20;;;;;;4890524;29;20741;-78
2022/09/18 00:25:30;;;;;;;1.50;1.00;;;12.60;98.20;;;;;;4893166;29;20518;-78
2022/09/18 00:27:58;;;;;;;1.50;1.03;;;12.60;98.20;;;;;;4904273;29;20488;-78
2022/09/18 00:30:25;;;;;;;1.50;1.10;;;12.60;98.20;;;;;;4898848;29;20962;-78
2022/09/18 00:32:52;;;;;;;1.60;1.20;;;12.60;98.20;;;;;;4899239;29;20493;-78
2022/09/18 00:35:20;;;;;;;1.60;1.20;;;12.60;98.20;;;;;;4911432;29;20464;-79
2022/09/18 00:37:46;;;;;;;1.50;1.00;;;12.60;98.20;;;;;;4886040;29;20489;-79
2022/09/18 00:40:14;;;;;;;1.50;1.07;;;12.60;98.20;;;;;;4900748;29;20465;-79
2022/09/18 00:42:41;;;;;;;1.50;1.07;;;12.60;98.20;;;;;;4889159;29;20644;-78
2022/09/18 00:45:10;;;;;;;1.50;1.10;;;12.60;98.20;;;;;;4901281;29;20858;-79
2022/09/18 00:47:42;;;;;;;1.50;1.00;;;12.60;98.20;;;;;;4891363;29;20501;-78
2022/09/18 00:50:12;;;;;;;1.50;1.00;;;12.60;98.20;;;;;;4908269;29;20496;-79
2022/09/18 00:52:47;;;;;;;1.50;1.10;;;12.60;98.20;;;;;;4889557;29;20599;-78
2022/09/18 00:55:15;;;;;;;1.50;1.00;;;12.60;98.20;;;;;;4900261;29;20899;-80
2022/09/18 00:57:47;;;;;;;1.50;1.00;;;12.60;98.20;;;;;;4905210;29;20528;-78
2022/09/18 01:00:15;;;;;;;1.50;1.00;;;12.60;98.20;;;;;;4900649;29;20473;-79
2022/09/18 01:02:45;;;;;;;1.50;1.10;;;12.60;98.20;;;;;;4888012;29;20517;-80
2022/09/18 01:05:14;;;;;;;1.50;1.10;;;12.60;98.20;;;;;;4914412;29;20528;-79
2022/09/18 01:08:07;;;;;;;1.50;1.00;;;12.60;98.20;;;;;;4894292;29;20497;-79
2022/09/18 01:10:48;;;;;;;1.50;1.10;;;12.60;98.20;;;;;;4914350;29;20465;-80
2022/09/18 01:13:23;;;;;;;1.50;1.00;;;12.60;98.20;;;;;;4880446;29;20703;-79
2022/09/18 01:16:00;;;;;;;1.50;1.00;;;12.60;98.20;;;;;;4903392;29;20496;-79
2022/09/18 01:18:39;;;;;;;1.50;1.07;;;12.60;98.20;;;;;;4908629;29;20535;-79
2022/09/18 01:21:14;;;;;;;1.50;1.10;;;12.50;98.20;;;;;;4901543;29;20527;-80
2022/09/18 01:24:15;;;;;;;1.50;1.00;;;12.50;98.20;;;;;;4888932;29;20488;-78
2022/09/18 01:26:56;;;;;;;1.60;1.20;;;12.60;98.20;;;;;;4847991;29;1212171;-79
2022/09/18 01:29:40;;;;;;;1.50;1.00;;;12.60;98.20;;;;;;4909497;29;20272;-80
2022/09/18 01:32:12;;;;;;;1.50;1.00;;;12.60;98.20;;;;;;4896465;29;20550;-79
2022/09/18 01:34:46;;;;;;;1.50;1.00;;;12.60;98.20;;;;;;4909214;29;20472;-79
2022/09/18 01:37:20;;;;;;;1.57;1.10;;;12.60;98.20;;;;;;4890394;29;20672;-78
2022/09/18 01:39:52;;;;;;;1.50;1.00;;;12.60;98.20;;;;;;4901857;29;20472;-80
2022/09/18 01:42:22;;;;;;;1.70;1.60;;;12.60;98.20;;;;;;4897096;29;20559;-78
2022/09/18 01:44:55;;;;;;;1.50;1.03;;;12.60;98.20;;;;;;4909773;29;20570;-79
2022/09/18 01:47:27;;;;;;;1.50;1.10;;;12.60;98.20;;;;;;4902760;29;20528;-80
2022/09/18 01:49:55;;;;;;;1.50;1.00;;;12.60;98.20;;;;;;4914611;29;20495;-79
2022/09/18 01:52:27;;;;;;;1.50;1.10;;;12.60;98.20;;;;;;4901347;29;20519;-79
2022/09/18 01:54:58;;;;;;;1.50;1.10;;;12.60;98.20;;;;;;4908751;29;20571;-78
2022/09/18 01:57:29;;;;;;;1.50;1.00;;;12.60;98.20;;;;;;4891472;29;20687;-78
2022/09/18 02:00:02;;;;;;;1.50;1.03;;;12.60;98.20;;;;;;4898634;29;20509;-78
2022/09/18 02:02:43;;;;;;;1.50;1.07;;;12.60;98.20;;;;;;4901233;29;20884;-79
2022/09/18 02:05:16;;;;;;;1.50;1.00;;;12.60;98.20;;;;;;4912851;29;20464;-80
2022/09/18 02:07:48;;;;;;;1.50;1.00;;;12.60;98.20;;;;;;4889417;29;20497;-79
2022/09/18 02:10:15;;;;;;;1.50;1.10;;;12.60;98.20;;;;;;4909570;29;20473;-79
2022/09/18 02:12:44;;;;;;;1.60;1.20;;;12.60;98.20;;;;;;4888226;29;20494;-80
2022/09/18 02:15:15;;;;;;;1.50;1.10;;;12.50;98.20;;;;;;4895958;29;20474;-80
2022/09/18 02:17:47;;;;;;;1.50;1.10;;;12.50;98.20;;;;;;4901969;29;20595;-79
2022/09/18 02:20:19;;;;;;;1.50;1.00;;;12.50;98.20;;;;;;4902375;29;20553;-79
2022/09/18 02:22:49;;;;;;;1.50;1.10;;;12.50;98.20;;;;;;4900712;29;20481;-79
2022/09/18 02:25:24;;;;;;;1.50;1.00;;;12.50;98.20;;;;;;4901139;29;20854;-79
2022/09/18 02:27:54;;;;;;;1.50;1.00;;;12.50;98.20;;;;;;4886138;29;20512;-80
2022/09/18 02:30:23;;;;;;;1.50;1.00;;;12.50;98.20;;;;;;4895630;29;20476;-79
2022/09/18 02:32:54;;;;;;;1.50;1.07;;;12.50;98.20;;;;;;4904557;29;20494;-79
2022/09/18 02:35:22;;;;;;;1.53;1.03;;;12.50;98.20;;;;;;4913160;29;20559;-80
2022/09/18 02:37:58;;;;;;;1.50;1.03;;;12.50;98.20;;;;;;4885787;29;20525;-80
2022/09/18 02:40:46;;;;;;;1.50;1.03;;;12.50;98.20;;;;;;4902378;29;21049;-80
2022/09/18 02:43:23;;;;;;;1.50;1.00;;;12.50;98.20;;;;;;4886206;29;20962;-80
2022/09/18 02:46:03;;;;;;;1.50;1.00;;;12.50;98.20;;;;;;4884806;29;20473;-80
2022/09/18 02:48:46;;;;;;;1.50;1.00;;;12.50;98.20;;;;;;4910122;29;20528;-80
2022/09/18 02:51:20;;;;;;;1.53;1.10;;;12.50;98.20;;;;;;4889618;29;20585;-79
2022/09/18 02:53:55;;;;;;;1.50;1.10;;;12.40;98.20;;;;;;4894874;29;20885;-79
2022/09/18 02:56:29;;;;;;;1.50;1.10;;;12.40;98.20;;;;;;4901175;29;20495;-79
2022/09/18 02:59:02;;;;;;;1.50;1.10;;;12.40;98.20;;;;;;4894957;29;20676;-79
2022/09/18 03:01:33;;;;;;;1.50;1.00;;;12.40;98.20;;;;;;4894942;29;20485;-80
2022/09/18 03:04:03;;;;;;;1.50;1.00;;;12.40;98.20;;;;;;4907437;29;20475;-79
2022/09/18 03:06:30;;;;;;;1.50;1.00;;;12.40;98.20;;;;;;4897344;29;20572;-79
2022/09/18 03:08:57;;;;;;;1.50;1.00;;;12.40;98.20;;;;;;4902576;29;20564;-79
2022/09/18 03:11:24;;;;;;;1.50;1.00;;;12.40;98.20;;;;;;4892192;29;20587;-79
2022/09/18 03:13:51;;;;;;;1.50;1.00;;;12.40;98.20;;;;;;4906010;29;21031;-80
2022/09/18 03:16:18;;;;;;;1.50;1.07;;;12.40;98.20;;;;;;4900698;29;20588;-79
2022/09/18 03:18:46;;;;;;;1.50;1.00;;;12.40;98.20;;;;;;4898250;29;20474;-79
2022/09/18 03:21:13;;;;;;;1.50;1.00;;;12.40;98.20;;;;;;4888690;29;20485;-79
2022/09/18 03:23:40;;;;;;;1.50;1.07;;;12.40;98.20;;;;;;4912448;29;20480;-79
2022/09/18 03:26:07;;;;;;;1.50;1.00;;;12.40;98.20;;;;;;4883849;29;20901;-79
2022/09/18 03:28:34;;;;;;;1.50;1.00;;;12.40;98.20;;;;;;4908441;29;20500;-79
2022/09/18 03:31:01;;;;;;;1.50;1.00;;;12.40;98.20;;;;;;4899555;29;20477;-79
2022/09/18 03:33:28;;;;;;;1.50;1.10;;;12.40;98.20;;;;;;4900041;29;20492;-79
2022/09/18 03:35:56;;;;;;;1.50;1.10;;;12.40;98.20;;;;;;4901169;29;20479;-79
2022/09/18 03:38:23;;;;;;;1.50;1.10;;;12.40;98.20;;;;;;4895176;29;20492;-79
2022/09/18 03:40:50;;;;;;;1.60;1.13;;;12.40;98.20;;;;;;4884848;29;20506;-79
2022/09/18 03:43:17;;;;;;;1.50;1.00;;;12.40;98.20;;;;;;4914927;29;20503;-80
2022/09/18 03:45:44;;;;;;;1.50;1.10;;;12.40;98.20;;;;;;4911090;29;20477;-79
2022/09/18 03:48:11;;;;;;;1.50;1.00;;;12.40;98.20;;;;;;4884536;29;20530;-79
2022/09/18 03:50:38;;;;;;;1.50;1.10;;;12.40;98.20;;;;;;4894472;29;20509;-79
2022/09/18 03:53:07;;;;;;;1.50;1.10;;;12.40;98.20;;;;;;4901747;29;20821;-79
2022/09/18 03:55:34;;;;;;;1.50;1.03;;;12.40;98.20;;;;;;4897042;29;20470;-78
2022/09/18 03:58:01;;;;;;;1.50;1.10;;;12.40;98.20;;;;;;4900248;29;20495;-78
2022/09/18 04:00:28;;;;;;;1.50;1.10;;;12.40;98.20;;;;;;4898592;29;20859;-79
2022/09/18 04:02:55;;;;;;;1.50;1.10;;;12.40;98.20;;;;;;4901114;29;20535;-78
2022/09/18 04:05:22;;;;;;;1.50;1.10;;;12.40;98.20;;;;;;4911507;29;20827;-78
2022/09/18 04:07:49;;;;;;;1.50;1.10;;;12.40;98.20;;;;;;4885879;29;20504;-79
2022/09/18 04:10:19;;;;;;;1.50;1.10;;;12.40;98.20;;;;;;4898251;29;20862;-79
2022/09/18 04:12:47;;;;;;;1.53;1.10;;;12.40;98.20;;;;;;4897300;29;20492;-79
2022/09/18 04:15:15;;;;;;;1.50;1.10;;;12.30;98.20;;;;;;4899382;29;20477;-79
2022/09/18 04:17:42;;;;;;;1.57;1.10;;;12.30;98.20;;;;;;4907130;29;20507;-78
2022/09/18 04:20:10;;;;;;;1.50;1.00;;;12.30;98.20;;;;;;4901740;29;20473;-79
2022/09/18 04:22:37;;;;;;;1.50;1.10;;;12.30;98.20;;;;;;4904956;29;21051;-79
2022/09/18 04:25:05;;;;;;;1.50;1.10;;;12.30;98.20;;;;;;4901102;29;20505;-79
2022/09/18 04:27:35;;;;;;;1.50;1.10;;;12.30;98.20;;;;;;4894555;29;20520;-79
2022/09/18 04:30:02;;;;;;;1.50;1.10;;;12.30;98.20;;;;;;4899318;29;20742;-79
2022/09/18 04:32:29;;;;;;;1.50;1.03;;;12.30;98.20;;;;;;4886335;29;20485;-79
2022/09/18 04:34:56;;;;;;;1.50;1.03;;;12.30;98.20;;;;;;4912257;29;20555;-79
2022/09/18 04:37:22;;;;;;;1.57;1.10;;;12.30;98.20;;;;;;4891590;29;20497;-78
2022/09/18 04:39:50;;;;;;;1.50;1.10;;;12.30;98.20;;;;;;4897577;29;21180;-78
2022/09/18 04:42:17;;;;;;;1.50;1.10;;;12.30;98.20;;;;;;4898761;29;20511;-78
2022/09/18 04:44:46;;;;;;;1.50;1.03;;;12.40;98.20;;;;;;4906168;29;20461;-80
2022/09/18 04:47:13;;;;;;;1.50;1.10;;;12.40;98.20;;;;;;4890778;29;20581;-78
2022/09/18 04:49:40;;;;;;;1.57;1.10;;;12.40;98.20;;;;;;4910925;29;20505;-79
2022/09/18 04:52:06;;;;;;;1.50;1.10;;;12.40;98.20;;;;;;4897675;29;20580;-78
2022/09/18 04:54:33;;;;;;;1.50;1.00;;;12.40;98.20;;;;;;4903113;29;20575;-79
2022/09/18 04:57:00;;;;;;;1.50;1.10;;;12.40;98.20;;;;;;4903115;29;20497;-78
2022/09/18 04:59:27;;;;;;;1.53;1.10;;;12.40;98.20;;;;;;4912908;29;20465;-78
2022/09/18 05:01:56;;;;;;;1.50;1.00;;;12.40;98.20;;;;;;4905816;29;20552;-78
2022/09/18 05:04:23;;;;;;;1.50;1.10;;;12.40;98.20;;;;;;4913131;29;20627;-79
2022/09/18 05:06:50;;;;;;;1.50;1.00;;;12.50;98.20;;;;;;4902666;29;20492;-78
2022/09/18 05:09:17;;;;;;;1.50;1.03;;;12.50;98.20;;;;;;4911172;29;20471;-78
2022/09/18 05:11:44;;;;;;;1.50;1.10;;;12.50;98.20;;;;;;4903519;29;20492;-78
2022/09/18 05:14:12;;;;;;;1.50;1.00;;;12.50;98.20;;;;;;4910247;29;20559;-80
2022/09/18 05:16:39;;;;;;;1.50;1.10;;;12.50;98.20;;;;;;4900790;29;20495;-78
2022/09/18 05:19:07;;;;;;;1.50;0.90;;;12.50;98.20;;;;;;4913625;29;20561;-78
2022/09/18 05:21:34;;;;;;;1.50;1.10;;;12.50;98.20;;;;;;4904306;29;20476;-78
2022/09/18 05:24:02;;;;;;;1.50;1.10;;;12.50;98.20;;;;;;4910988;29;20872;-79
2022/09/18 05:26:30;;;;;;;1.53;1.10;;;12.50;98.20;;;;;;4896033;29;20836;-78
2022/09/18 05:28:57;;;;;;;1.50;1.00;;;12.50;98.20;;;;;;4900552;29;20531;-78
2022/09/18 05:31:24;;;;;;;1.50;1.00;;;12.50;98.20;;;;;;4903139;29;20480;-78
2022/09/18 05:33:51;;;;;;;1.50;1.00;;;12.50;98.20;;;;;;4911880;29;20496;-78
2022/09/18 05:36:19;;;;;;;1.50;1.10;;;12.50;98.20;;;;;;4900595;29;20483;-78
2022/09/18 05:38:47;;;;;;;1.50;1.10;;;12.50;98.20;;;;;;4913467;29;20461;-78
2022/09/18 05:41:14;;;;;;;1.50;1.00;;;12.50;98.20;;;;;;4901558;29;20480;-78
2022/09/18 05:43:44;;;;;;;1.50;1.10;;;12.50;98.20;;;;;;4911048;29;20992;-78
2022/09/18 05:46:13;;;;;;;1.53;1.10;;;12.50;98.20;;;;;;4902149;29;20548;-78
2022/09/18 05:48:41;;;;;;;1.50;1.10;;;12.50;98.20;;;;;;4912834;29;20872;-78
2022/09/18 05:51:08;;;;;;;1.50;1.00;;;12.50;98.20;;;;;;4902589;29;20466;-78
2022/09/18 05:53:37;;;;;;;1.50;1.10;;;12.50;98.20;;;;;;4911563;29;20528;-78
2022/09/18 05:56:04;;;;;;;1.50;1.00;;;12.50;98.20;;;;;;4898771;29;20492;-77
2022/09/18 05:58:31;;;;;;;1.50;1.00;;;12.60;98.20;;;;;;4902423;29;20478;-79
2022/09/18 06:01:00;;;;;;;1.50;1.10;;;12.60;98.20;;;;;;4902411;29;20489;-78
2022/09/18 06:03:27;;;;;;;1.53;1.10;;;12.60;98.20;;;;;;4900907;29;20877;-78
2022/09/18 06:05:55;;;;;;;1.50;1.00;;;12.60;98.20;;;;;;4899907;29;20545;-78
2022/09/18 06:08:23;;;;;;;1.50;1.10;;;12.60;98.20;;;;;;4913902;29;20500;-78
2022/09/18 06:10:53;;;;;;;1.50;1.10;;;12.60;98.20;;;;;;4901240;29;20497;-79
2022/09/18 06:13:20;;;;;;;1.50;1.10;;;12.70;98.20;;;;;;4898638;29;20460;-78
2022/09/18 06:15:50;;;;;;;1.50;1.00;;;12.70;98.20;;;;;;4911538;29;20468;-78
2022/09/18 06:18:18;;;;;;;1.50;1.10;;;12.60;98.20;;;;;;4912770;29;20465;-79
2022/09/18 06:20:53;;;;;;;1.50;1.00;;;12.60;98.20;;;;;;4911619;29;20461;-78
2022/09/18 06:23:20;;;;;;;1.50;1.03;;;12.70;98.20;;;;;;4887069;29;20567;-80
2022/09/18 06:25:47;;;;;;;1.50;1.00;;;12.70;98.20;;;;;;4911931;29;20465;-79
2022/09/18 06:28:36;;;;;;;1.50;1.10;;;12.70;98.20;;;;;;4885701;29;20485;-79
2022/09/18 06:31:04;;;;;;;1.50;1.00;;;12.70;98.20;;;;;;4898430;29;20469;-78
2022/09/18 06:33:32;;;;;;;1.50;1.07;;;12.70;98.20;;;;;;4911795;29;20496;-79
2022/09/18 06:35:59;;;;;;;1.50;1.00;;;12.80;98.20;;;;;;4903368;29;20520;-78
2022/09/18 06:38:27;;;;;;;1.50;1.00;;;12.80;98.20;;;;;;4911508;29;20587;-78
2022/09/18 06:40:54;;;;;;;1.50;1.00;;;12.80;98.20;;;;;;4902688;29;20556;-78
2022/09/18 06:43:23;;;;;;;1.50;1.10;;;12.90;98.20;;;;;;4914066;29;20464;-78
2022/09/18 06:45:54;;;;;;;1.50;1.00;;;12.90;98.20;;;;;;4901430;29;20475;-78
2022/09/18 06:48:21;;;;;;;1.50;1.00;;;12.90;98.20;;;;;;4903190;29;20469;-78
2022/09/18 06:50:53;;;;;;;1.50;1.00;;;12.90;98.20;;;;;;4902285;29;20475;-79
2022/09/18 06:53:20;;;;;;;1.50;0.90;;;12.90;98.20;;;;;;4910556;29;20532;-79
2022/09/18 06:55:48;;;;;;;1.50;1.00;;;12.90;98.20;;;;;;4908401;29;20532;-79
2022/09/18 06:58:16;;;;;;;1.53;1.10;;;12.90;98.20;;;;;;4897920;29;20477;-78
2022/09/18 07:00:46;;;;;;;1.50;1.10;;;12.90;98.20;;;;;;4911025;29;21159;-78
2022/09/18 07:03:14;;;;;;;1.50;1.00;;;12.90;98.20;;;;;;4899665;29;20900;-79
2022/09/18 07:05:44;;;;;;;1.50;1.00;;;12.90;98.20;;;;;;4909683;29;20969;-79
2022/09/18 07:08:11;;;;;;;1.50;1.10;;;12.90;98.20;;;;;;4898693;29;20914;-78
2022/09/18 07:10:39;;;;;;;1.50;1.00;;;12.90;98.20;;;;;;4910776;29;20660;-78
2022/09/18 07:13:07;;;;;;;1.50;1.10;;;13.00;98.20;;;;;;4889939;29;20477;-78
2022/09/18 07:15:38;;;;;;;1.50;1.10;;;13.00;98.20;;;;;;4906955;29;20526;-79
2022/09/18 07:18:06;;;;;;;1.50;1.00;;;13.10;98.20;;;;;;4899413;29;20489;-79
2022/09/18 07:20:34;;;;;;;1.53;1.10;;;13.10;98.20;;;;;;4910926;29;20523;-79
2022/09/18 07:23:03;;;;;;;1.50;1.00;;;13.10;98.20;;;;;;4897605;29;20489;-79
2022/09/18 07:25:33;;;;;;;2.00;1.43;;;13.10;98.20;;;;;;4907929;29;20468;-79
2022/09/18 07:28:05;;;;;;;1.50;1.00;;;13.20;98.20;;;;;;4897696;29;20491;-80
2022/09/18 07:30:32;;;;;;;1.57;1.00;;;13.20;98.20;;;;;;4908890;29;20488;-78
2022/09/18 07:32:59;;;;;;;1.53;1.03;;;13.30;98.20;;;;;;4903530;29;20488;-79
2022/09/18 07:35:27;;;;;;;1.50;1.00;;;13.30;98.20;;;;;;4907271;29;20938;-79
2022/09/18 07:37:57;;;;;;;1.50;1.00;;;13.30;98.20;;;;;;4908664;29;20492;-78
2022/09/18 07:40:25;;;;;;;1.50;1.00;;;13.30;98.20;;;;;;4911264;29;20468;-79
2022/09/18 07:42:59;;;;;;;1.50;1.00;;;13.40;98.20;;;;;;4901443;29;20959;-80
2022/09/18 07:45:26;;;;;;;1.50;1.10;;;13.40;98.20;;;;;;4907789;29;20493;-78
2022/09/18 07:47:54;;;;;;;1.50;0.97;;;13.50;98.20;;;;;;4905207;29;22062;-79
2022/09/18 07:50:21;;;;;;;1.50;1.00;;;13.50;98.20;;;;;;4909980;29;20531;-78
2022/09/18 07:52:51;;;;;;;1.50;1.00;;;13.60;98.20;;;;;;4898580;29;20885;-79
2022/09/18 07:55:19;;;;;;;1.50;1.00;;;13.70;98.20;;;;;;4908171;29;20507;-78
2022/09/18 07:57:48;;;;;;;1.50;1.10;;;13.80;98.20;;;;;;4888610;29;20657;-79
2022/09/18 08:00:16;;;;;;;1.53;1.00;;;13.90;98.20;;;;;;4914069;29;20473;-80
2022/09/18 08:02:43;;;;;;;1.50;1.00;;;14.00;98.20;;;;;;4903646;29;20489;-78
2022/09/18 08:05:10;;;;;;;1.60;1.10;;;14.10;98.20;;;;;;4909907;29;20881;-78
2022/09/18 08:07:38;;;;;;;1.57;1.00;;;14.10;98.20;;;;;;4893895;29;20525;-78
2022/09/18 08:10:14;;;;;;;1.53;1.00;;;14.20;98.20;;;;;;4910934;29;20469;-79
2022/09/18 08:12:42;;;;;;;1.50;1.00;;;14.30;98.20;;;;;;4891275;29;20572;-80
2022/09/18 08:15:10;;;;;;;1.57;1.03;;;14.30;98.20;;;;;;4906693;29;20607;-78
2022/09/18 08:17:45;;;;;;;1.50;1.00;;;14.30;98.20;;;;;;4886654;29;20513;-78
2022/09/18 08:20:13;;;;;;;1.57;1.00;;;14.20;98.20;;;;;;4909835;29;20866;-79
2022/09/18 08:22:40;;;;;;;1.50;1.00;;;14.30;98.20;;;;;;4885899;29;20485;-78
2022/09/18 08:25:12;;;;;;;1.50;1.00;;;14.40;98.20;;;;;;4905804;29;20877;-78
2022/09/18 08:27:40;;;;;;;1.50;0.90;;;14.50;98.20;;;;;;4895085;29;20781;-78
2022/09/18 08:30:10;;;;;;;1.50;1.00;;;14.50;98.20;;;;;;4906299;29;20563;-78
2022/09/18 08:32:38;;;;;;;1.50;1.00;;;14.60;98.20;;;;;;4896775;29;20477;-78
2022/09/18 08:35:09;;;;;;;1.50;1.00;;;14.60;98.20;;;;;;4908670;29;20493;-78
2022/09/18 08:37:37;;;;;;;1.57;0.97;;;14.60;98.20;;;;;;4889439;29;20571;-78
2022/09/18 08:40:07;;;;;;;1.53;1.00;;;14.60;98.20;;;;;;4906875;29;20505;-79
2022/09/18 08:42:43;;;;;;;1.50;1.00;;;14.60;98.20;;;;;;4896926;29;21033;-79
2022/09/18 08:45:35;;;;;;;1.50;1.00;;;14.50;98.20;;;;;;4906869;29;20468;-79
2022/09/18 08:48:16;;;;;;;1.50;1.00;;;14.50;98.20;;;;;;4898865;29;21064;-79
2022/09/18 08:50:53;;;;;;;1.50;1.00;;;14.50;98.20;;;;;;4910186;29;20468;-79
2022/09/18 08:53:26;;;;;;;1.50;1.00;;;14.50;98.20;;;;;;4886415;29;20480;-79
2022/09/18 08:55:56;;;;;;;1.50;1.00;;;14.50;98.20;;;;;;4897023;29;20560;-81
2022/09/18 08:58:29;;;;;;;1.53;1.00;;;14.50;98.20;;;;;;4903458;29;20773;-83
2022/09/18 09:01:01;;;;;;;1.53;1.00;;;14.40;98.20;;;;;;4902240;29;20511;-81
2022/09/18 09:03:37;;;;;;;1.50;1.10;;;14.50;98.20;;;;;;4917908;29;20503;-78
2022/09/18 09:06:15;;;;;;;1.50;1.00;;;14.50;98.20;;;;;;4898630;29;20483;-79
2022/09/18 09:09:11;;;;;;;1.50;1.00;;;14.50;98.20;;;;;;4904056;29;20580;-78
2022/09/18 09:11:47;;;;;;;1.50;1.00;;;14.50;98.20;;;;;;4897246;29;20577;-78
2022/09/18 09:14:36;;;;;;;1.50;1.00;;;14.50;98.20;;;;;;4905252;29;20468;-78
2022/09/18 09:17:11;;;;;;;1.50;1.00;;;14.50;98.20;;;;;;4894700;29;20488;-77
2022/09/18 09:19:43;;;;;;;1.50;1.00;;;14.40;98.20;;;;;;4912215;29;21001;-77
2022/09/18 09:22:18;;;;;;;1.50;1.00;;;14.40;98.20;;;;;;4895277;29;20496;-78
2022/09/18 09:24:59;;;;;;;1.50;1.00;;;14.40;98.20;;;;;;4906774;29;20500;-78
2022/09/18 09:27:33;;;;;;;1.50;1.00;;;14.50;98.20;;;;;;4896617;29;20497;-79
2022/09/18 09:30:05;;;;;;;1.50;1.00;;;14.50;98.20;;;;;;4906589;29;20505;-79
2022/09/18 09:32:38;;;;;;;1.50;1.00;;;14.50;98.20;;;;;;4899541;29;20481;-79
2022/09/18 09:35:25;;;;;;;1.53;1.00;;;14.50;98.20;;;;;;4908918;29;20501;-80
2022/09/18 09:37:53;;;;;;;1.50;1.00;;;14.50;98.20;;;;;;4899580;29;20514;-79
2022/09/18 09:40:31;;;;;;;1.50;1.10;;;14.40;98.20;;;;;;4909549;29;20468;-78
2022/09/18 09:43:04;;;;;;;1.50;1.00;;;14.30;98.20;;;;;;4885283;29;20504;-76
2022/09/18 09:45:39;;;;;;;1.50;1.00;;;14.30;98.20;;;;;;4909353;29;20693;-78
2022/09/18 09:48:13;;;;;;;1.50;1.00;;;14.20;98.20;;;;;;4900722;29;20495;-78
2022/09/18 09:50:51;;;;;;;1.50;1.00;;;14.20;98.20;;;;;;4908265;29;20475;-77
2022/09/18 09:53:19;;;;;;;1.60;1.17;;;14.20;98.20;;;;;;4880847;29;20732;-79
2022/09/18 09:55:57;;;;;;;1.50;1.00;;;14.20;98.20;;;;;;4908187;29;20485;-82
2022/09/18 09:58:35;;;;;;;1.50;1.00;;;14.20;98.20;;;;;;4900834;29;20991;-81
2022/09/18 10:01:13;;;;;;;1.50;1.00;;;14.20;98.20;;;;;;4903633;29;20998;-79
2022/09/18 10:03:59;;;;;;;1.50;1.00;;;14.20;98.20;;;;;;4907802;29;20468;-78
2022/09/18 10:06:39;;;;;;;1.50;1.00;;;14.20;98.20;;;;;;4898913;29;20484;-79
2022/09/18 10:09:15;;;;;;;1.50;1.00;;;14.20;98.20;;;;;;4906928;29;20527;-79
2022/09/18 10:11:49;;;;;;;1.50;1.00;;;14.20;98.20;;;;;;4898363;29;20990;-78
2022/09/18 10:14:21;;;;;;;1.50;1.00;;;14.20;98.20;;;;;;4909512;29;20483;-79
2022/09/18 10:16:52;;;;;;;1.50;1.00;;;14.20;98.20;;;;;;4897561;29;20495;-79
2022/09/18 10:19:22;;;;;;;1.50;1.00;;;14.20;98.20;;;;;;4902498;29;20528;-79
2022/09/18 10:21:51;;;;;;;3.10;2.90;;;14.20;98.20;;;;;;4896081;29;20488;-79
2022/09/18 10:24:26;;;;;;;1.50;1.00;;;14.30;98.20;;;;;;4906712;29;20516;-80
2022/09/18 10:27:00;;;;;;;1.50;1.00;;;14.20;98.20;;;;;;4893258;29;20496;-80
2022/09/18 10:29:28;;;;;;;1.50;0.90;;;14.20;98.20;;;;;;4903475;29;20852;-79
2022/09/18 10:32:15;;;;;;;1.50;1.00;;;14.30;98.20;;;;;;4899492;29;20608;-79
2022/09/18 10:35:03;;;;;;;1.50;1.10;;;14.40;98.20;;;;;;4909858;29;20469;-79
2022/09/18 10:37:41;;;;;;;1.50;1.07;;;14.50;98.20;;;;;;4880176;29;20501;-78
2022/09/18 10:40:29;;;;;;;1.57;1.00;;;14.60;98.20;;;;;;4909884;29;20848;-80
2022/09/18 10:42:57;;;;;;;1.50;1.10;;;14.80;98.20;;;;;;4887162;29;20573;-78
2022/09/18 10:45:28;;;;;;;1.50;1.00;;;15.00;98.20;;;;;;4906875;29;20745;-78
2022/09/18 10:48:06;;;;;;;1.50;0.90;;;15.10;98.20;;;;;;4900976;29;20583;-79
2022/09/18 10:50:36;;;;;;;1.57;1.00;;;15.30;98.20;;;;;;4910788;29;20980;-79
2022/09/18 10:53:22;;;;;;;1.50;1.00;;;15.30;98.20;;;;;;4899378;29;20492;-77
2022/09/18 10:55:50;;;;;;;1.50;1.00;;;15.20;98.20;;;;;;4898282;29;21095;-79
2022/09/18 10:58:25;;;;;;;1.50;0.90;;;15.30;98.20;;;;;;4909354;29;20472;-79
2022/09/18 11:01:26;;;;;;;1.50;1.00;;;15.40;98.20;;;;;;4905237;29;20473;-80
2022/09/18 11:04:03;;;;;;;1.50;1.00;;;15.50;98.20;;;;;;4821409;29;20514;-77
2022/09/18 11:06:32;;;;;;;1.60;1.00;;;15.50;98.20;;;;;;4881756;29;20485;-78
2022/09/18 11:09:02;;;;;;;1.53;1.00;;;15.60;98.20;;;;;;4902653;29;20842;-77
2022/09/18 11:11:31;;;;;;;1.57;1.00;;;15.60;98.20;;;;;;4898825;29;20508;-77
2022/09/18 11:14:02;;;;;;;1.50;1.00;;;15.70;98.20;;;;;;4910988;29;20471;-78
2022/09/18 11:16:31;;;;;;;1.50;0.90;;;15.70;98.20;;;;;;4895733;29;20513;-78
2022/09/18 11:19:07;;;;;;;1.60;1.00;;;15.80;98.20;;;;;;4900627;29;20481;-79
2022/09/18 11:21:46;;;;;;;1.53;1.10;;;15.80;98.20;;;;;;4892183;29;20485;-79
2022/09/18 11:24:22;;;;;;;1.50;1.00;;;15.80;98.20;;;;;;4900072;29;20593;-78
2022/09/18 11:26:51;;;;;;;1.50;1.00;;;15.90;98.20;;;;;;4891312;29;20497;-81
2022/09/18 11:29:25;;;;;;;1.50;1.00;;;16.00;98.20;;;;;;4901906;29;20548;-78
2022/09/18 11:31:57;;;;;;;1.50;1.00;;;16.00;98.20;;;;;;4898119;29;20497;-78
2022/09/18 11:34:31;;;;;;;1.50;1.00;;;16.00;98.20;;;;;;4907647;29;20532;-79
2022/09/18 11:37:01;;;;;;;1.50;1.00;;;16.00;98.20;;;;;;4889292;29;20504;-78
2022/09/18 11:39:35;;;;;;;1.50;1.00;;;16.00;98.20;;;;;;4900885;29;20516;-78
2022/09/18 11:42:11;;;;;;;1.50;0.90;;;15.90;98.20;;;;;;4898650;29;20779;-79
2022/09/18 11:44:39;;;;;;;1.50;0.90;;;15.90;98.20;;;;;;4902734;29;20495;-79
2022/09/18 11:47:36;;;;;;;1.50;1.00;;;15.80;98.20;;;;;;4894840;29;20903;-79
2022/09/18 11:50:12;;;;;;;1.50;1.00;;;15.90;98.20;;;;;;4883981;29;20513;-79
2022/09/18 11:52:43;;;;;;;1.50;0.90;;;15.90;98.20;;;;;;4893919;29;20488;-79
2022/09/18 11:55:27;;;;;;;1.50;1.00;;;15.90;98.20;;;;;;4905490;29;20820;-79
2022/09/18 11:57:59;;;;;;;1.50;1.00;;;15.90;98.20;;;;;;4886281;29;20931;-80
2022/09/18 12:00:30;;;;;;;1.50;1.00;;;15.80;98.20;;;;;;4906391;29;20477;-79
2022/09/18 12:03:07;;;;;;;1.50;1.00;;;15.90;98.20;;;;;;4895570;29;20546;-79
2022/09/18 12:05:51;;;;;;;1.50;1.00;;;16.00;98.20;;;;;;4901364;29;20473;-79
2022/09/18 12:08:26;;;;;;;1.50;0.97;;;16.10;98.20;;;;;;4881398;29;20890;-79
2022/09/18 12:11:08;;;;;;;1.50;1.00;;;16.00;98.20;;;;;;4901318;29;20812;-79
2022/09/18 12:13:45;;;;;;;1.50;0.90;;;16.00;98.20;;;;;;4904958;29;20469;-79
2022/09/18 12:16:21;;;;;;;1.53;1.00;;;15.90;98.20;;;;;;4894628;29;20488;-79
2022/09/18 12:19:04;;;;;;;1.50;1.00;;;15.80;98.20;;;;;;4905240;29;20481;-81
2022/09/18 12:21:42;;;;;;;1.50;1.00;;;15.70;98.20;;;;;;4894261;29;20488;-78
2022/09/18 12:24:16;;;;;;;1.50;0.97;;;15.50;98.20;;;;;;4904614;29;20558;-79
2022/09/18 12:26:58;;;;;;;1.50;1.00;;;15.40;98.20;;;;;;4894527;29;20500;-78
2022/09/18 12:29:47;;;;;;;1.50;0.90;;;15.20;98.20;;;;;;4903692;29;20916;-77
2022/09/18 12:32:33;;;;;;;1.53;1.00;;;14.90;98.20;;;;;;4895453;29;20644;-78
2022/09/18 12:35:12;;;;;;;1.50;1.00;;;14.70;98.20;;;;;;4906309;29;20480;-79
2022/09/18 12:38:00;;;;;;;1.50;1.00;;;14.50;98.20;;;;;;4897438;29;20492;-77
2022/09/18 12:40:43;;;;;;;1.53;1.00;;;14.30;98.20;;;;;;4908245;29;20847;-77
2022/09/18 12:43:39;;;;;;;1.57;1.00;;;14.10;98.20;;;;;;4897679;29;21102;-78
2022/09/18 12:52:37;;;;;;;1.50;1.10;;;13.50;98.20;;;;;;4828973;29;20535;-79
2022/09/18 12:55:37;;;;;;;1.50;1.00;;;13.40;98.20;;;;;;4835683;29;20476;-79
2022/09/18 13:01:41;;;;;;;1.50;1.00;;;13.40;98.20;;;;;;4819612;29;20571;-79
2022/09/18 13:04:36;;;;;;;1.50;1.00;;;13.30;98.20;;;;;;4931213;29;20557;-79
2022/09/18 13:07:20;;;;;;;1.50;1.00;;;13.30;98.20;;;;;;4938979;28;20546;-80
2022/09/18 13:12:55;;;;;;;1.50;1.00;;;13.30;98.20;;;;;;4940196;23;20510;-75
2022/09/18 13:15:27;;;;;;;1.50;1.00;;;13.20;98.20;;;;;;4946699;29;20609;-75
2022/09/18 13:18:29;;;;;;;1.50;1.00;;;13.20;98.20;;;;;;4935709;28;20570;-74
2022/09/18 13:20:59;;;;;;;1.50;1.00;;;13.30;98.20;;;;;;4935281;28;21108;-74
2022/09/18 13:23:32;;;;;;;1.50;1.00;;;13.30;98.20;;;;;;4947711;29;20512;-74
2022/09/18 13:26:02;;;;;;;1.50;1.10;;;13.40;98.20;;;;;;4949489;28;20498;-74